createdAt,value
2022-10-14T00:01:27.055Z,100786.81
2022-10-14T00:03:56.211Z,100745.75
2022-10-14T00:06:27.749Z,100787.63
2022-10-14T00:09:01.318Z,100782.25
2022-10-14T00:11:32.596Z,100784.84
2022-10-14T00:14:04.601Z,100783.97
2022-10-14T00:16:36.731Z,100785.75
2022-10-14T00:19:06.518Z,100778.72
2022-10-14T00:21:37.772Z,100785.88
2022-10-14T00:24:09.497Z,100705.53
2022-10-14T00:26:40.415Z,100769.34
2022-10-14T00:29:13.345Z,100752.84
2022-10-14T00:31:42.339Z,100775.72
2022-10-14T00:34:12.938Z,100735.59
2022-10-14T00:36:41.784Z,100781.13
2022-10-14T00:39:13.653Z,100778.66
2022-10-14T00:41:43.310Z,100797.16
2022-10-14T00:45:00.464Z,100793.69
2022-10-14T00:47:30.307Z,100793.78
2022-10-14T00:50:01.151Z,100785.88
2022-10-14T00:52:31.697Z,100785.00
2022-10-14T00:55:06.355Z,100787.69
2022-10-14T00:57:36.293Z,100791.22
2022-10-14T01:00:11.434Z,100790.34
2022-10-14T01:02:40.530Z,100795.63
2022-10-14T01:05:12.717Z,100780.69
2022-10-14T01:08:04.043Z,100784.97
2022-10-14T01:10:43.593Z,100785.84
2022-10-14T01:13:26.956Z,100792.88
2022-10-14T01:16:14.711Z,100771.88
2022-10-14T01:19:08.308Z,100793.69
2022-10-14T01:21:42.430Z,100782.28
2022-10-14T01:24:56.514Z,100786.56
2022-10-14T01:28:25.295Z,100788.25
2022-10-14T01:31:02.099Z,100763.78
2022-10-14T01:33:37.991Z,100786.38
2022-10-14T01:36:16.424Z,100587.22
2022-10-14T01:38:52.061Z,100787.09
2022-10-14T01:41:26.380Z,100783.56
2022-10-14T01:44:01.094Z,100787.06
2022-10-14T01:46:34.737Z,100777.38
2022-10-14T01:49:09.743Z,100775.59
2022-10-14T01:51:45.504Z,100765.13
2022-10-14T01:54:21.693Z,100769.63
2022-10-14T01:56:53.901Z,100764.47
2022-10-14T01:59:25.026Z,100750.59
2022-10-14T02:01:54.792Z,100764.69
2022-10-14T02:04:24.844Z,100742.91
2022-10-14T02:07:04.470Z,100762.22
2022-10-14T02:09:48.207Z,100756.13
2022-10-14T02:12:34.245Z,100757.94
2022-10-14T02:15:21.033Z,100703.88
2022-10-14T02:17:58.871Z,100765.00
2022-10-14T02:20:34.489Z,100764.09
2022-10-14T02:23:14.982Z,100771.84
2022-10-14T02:25:47.764Z,100758.50
2022-10-14T02:28:21.861Z,100760.16
2022-10-14T02:30:56.709Z,100761.06
2022-10-14T02:33:33.796Z,100753.25
2022-10-14T02:36:04.823Z,100763.06
2022-10-14T02:38:39.153Z,100755.25
2022-10-14T02:41:14.935Z,100757.97
2022-10-14T02:43:44.927Z,100752.75
2022-10-14T02:46:13.871Z,100749.28
2022-10-14T02:48:43.889Z,100745.69
2022-10-14T02:51:12.571Z,100743.00
2022-10-14T02:53:41.587Z,100733.22
2022-10-14T02:56:11.819Z,100731.34
2022-10-14T02:58:40.461Z,100738.28
2022-10-14T03:01:09.558Z,100737.34
2022-10-14T03:03:38.478Z,100746.94
2022-10-14T03:06:08.578Z,100718.09
2022-10-14T03:08:37.585Z,100747.72
2022-10-14T03:11:07.715Z,100752.06
2022-10-14T03:13:36.808Z,100745.88
2022-10-14T03:16:05.669Z,100737.09
2022-10-14T03:18:36.373Z,100743.91
2022-10-14T03:21:13.839Z,100739.41
2022-10-14T03:23:44.943Z,100748.13
2022-10-14T03:26:14.687Z,100746.31
2022-10-14T03:28:47.889Z,100746.25
2022-10-14T03:31:23.726Z,100740.91
2022-10-14T03:34:22.497Z,100738.25
2022-10-14T03:36:58.598Z,100747.91
2022-10-14T03:39:28.882Z,100738.16
2022-10-14T03:42:05.163Z,100749.56
2022-10-14T03:44:41.892Z,100731.09
2022-10-14T03:47:17.819Z,100739.75
2022-10-14T03:49:46.963Z,100740.56
2022-10-14T03:52:24.386Z,100730.00
2022-10-14T03:55:06.165Z,100738.69
2022-10-14T03:57:35.072Z,100735.13
2022-10-14T04:00:03.811Z,100730.69
2022-10-14T04:02:44.484Z,100729.72
2022-10-14T04:05:34.119Z,100726.16
2022-10-14T04:08:10.711Z,100667.69
2022-10-14T04:10:42.685Z,100719.94
2022-10-14T04:13:14.459Z,100724.31
2022-10-14T04:15:43.449Z,100717.19
2022-10-14T04:18:19.931Z,100711.06
2022-10-14T04:20:50.187Z,100711.94
2022-10-14T04:23:23.430Z,100704.84
2022-10-14T04:25:56.463Z,100672.53
2022-10-14T04:28:26.036Z,100698.66
2022-10-14T04:31:01.577Z,100701.28
2022-10-14T04:33:39.010Z,100697.75
2022-10-14T04:36:16.709Z,100703.03
2022-10-14T04:38:47.503Z,100698.63
2022-10-14T04:41:15.883Z,100692.47
2022-10-14T04:43:49.333Z,100698.66
2022-10-14T04:46:25.075Z,100693.41
2022-10-14T04:48:53.894Z,100692.56
2022-10-14T04:51:25.803Z,100696.13
2022-10-14T04:54:04.897Z,100690.88
2022-10-14T04:56:41.619Z,100691.81
2022-10-14T04:59:12.653Z,100662.16
2022-10-14T05:02:16.180Z,100691.75
2022-10-14T05:04:56.549Z,100690.00
2022-10-14T05:07:25.552Z,100691.75
2022-10-14T05:10:01.107Z,100694.34
2022-10-14T05:12:40.063Z,100650.72
2022-10-14T05:15:09.586Z,100683.75
2022-10-14T05:17:49.398Z,100684.59
2022-10-14T05:20:21.522Z,100682.84
2022-10-14T05:22:57.350Z,100688.94
2022-10-14T05:25:28.169Z,100681.88
2022-10-14T05:27:57.085Z,100690.69
2022-10-14T05:30:30.798Z,100692.44
2022-10-14T05:33:02.855Z,100689.72
2022-10-14T05:35:57.097Z,100651.38
2022-10-14T05:38:21.620Z,100675.63
2022-10-14T05:40:59.729Z,100670.34
2022-10-14T05:43:32.366Z,100687.66
2022-10-14T05:46:02.167Z,100687.63
2022-10-14T05:48:35.181Z,100683.09
2022-10-14T05:51:03.908Z,100686.53
2022-10-14T05:53:36.284Z,100689.94
2022-10-14T05:56:11.549Z,100703.03
2022-10-14T05:58:42.315Z,100687.91
2022-10-14T06:01:13.412Z,100686.91
2022-10-14T06:03:43.785Z,100694.66
2022-10-14T06:06:15.035Z,100678.03
2022-10-14T06:08:45.113Z,100696.22
2022-10-14T06:11:15.635Z,100698.72
2022-10-14T06:13:44.396Z,100701.25
2022-10-14T06:16:13.323Z,100700.22
2022-10-14T06:18:42.149Z,100701.03
2022-10-14T06:21:12.990Z,100676.50
2022-10-14T06:23:41.727Z,100693.75
2022-10-14T06:26:10.718Z,100699.81
2022-10-14T06:28:41.132Z,100700.63
2022-10-14T06:31:09.950Z,100700.47
2022-10-14T06:33:38.876Z,100694.19
2022-10-14T06:36:08.610Z,100657.56
2022-10-14T06:38:37.260Z,100703.63
2022-10-14T06:41:05.949Z,100707.94
2022-10-14T06:43:35.407Z,100704.19
2022-10-14T06:46:06.360Z,100702.25
2022-10-14T06:48:35.219Z,100706.53
2022-10-14T06:51:04.085Z,100714.34
2022-10-14T06:53:32.719Z,100712.56
2022-10-14T06:56:03.119Z,100708.00
2022-10-14T06:58:32.078Z,100707.00
2022-10-14T07:01:07.985Z,100579.75
2022-10-14T07:03:39.040Z,100691.94
2022-10-14T07:06:09.306Z,100701.97
2022-10-14T07:08:38.102Z,100705.38
2022-10-14T07:11:07.152Z,100708.66
2022-10-14T07:13:35.838Z,100612.63
2022-10-14T07:16:06.051Z,100711.84
2022-10-14T07:18:34.655Z,100707.22
2022-10-14T07:21:07.405Z,100710.50
2022-10-14T07:23:36.030Z,100712.16
2022-10-14T07:26:04.734Z,100708.38
2022-10-14T07:28:34.241Z,100691.66
2022-10-14T07:31:07.011Z,100695.97
2022-10-14T07:36:09.843Z,100704.25
2022-10-14T07:38:39.261Z,100707.59
2022-10-14T07:41:16.916Z,100702.88
2022-10-14T07:43:47.016Z,100702.59
2022-10-14T07:46:28.200Z,100715.56
2022-10-14T07:48:58.050Z,100715.09
2022-10-14T07:51:27.620Z,100710.31
2022-10-14T07:53:58.006Z,100701.41
2022-10-14T07:56:26.919Z,100713.19
2022-10-14T07:58:56.066Z,100711.09
2022-10-14T08:01:26.137Z,100708.94
2022-10-14T08:03:54.820Z,100712.16
2022-10-14T08:06:23.854Z,100718.00
2022-10-14T08:08:52.570Z,100723.97
2022-10-14T08:11:25.362Z,100718.28
2022-10-14T08:13:54.655Z,100722.97
2022-10-14T08:16:26.865Z,100732.94
2022-10-14T08:18:58.580Z,100730.53
2022-10-14T08:21:28.052Z,100662.78
2022-10-14T08:23:56.948Z,100730.13
2022-10-14T08:26:31.889Z,100732.47
2022-10-14T08:29:02.210Z,100732.00
2022-10-14T08:31:32.971Z,100723.78
2022-10-14T08:34:01.762Z,100738.38
2022-10-14T08:36:32.140Z,100670.78
2022-10-14T08:39:02.703Z,100734.03
2022-10-14T08:42:16.115Z,100734.63
2022-10-14T08:44:51.166Z,100716.09
2022-10-14T08:47:26.902Z,100709.66
2022-10-14T08:50:03.743Z,100716.97
2022-10-14T08:52:39.980Z,100734.41
2022-10-14T08:55:28.026Z,100698.94
2022-10-14T08:58:06.137Z,100720.19
2022-10-14T09:00:38.095Z,100725.75
2022-10-14T09:03:20.561Z,100724.34
2022-10-14T09:05:58.601Z,100732.03
2022-10-14T09:08:38.439Z,100732.78
2022-10-14T09:11:10.955Z,100641.59
2022-10-14T09:13:43.907Z,100735.22
2022-10-14T09:16:20.883Z,100745.75
2022-10-14T09:18:56.417Z,100734.50
2022-10-14T09:21:51.840Z,100733.59
2022-10-14T09:24:24.250Z,100716.81
2022-10-14T09:29:34.258Z,100727.09
2022-10-14T09:32:07.874Z,100717.09
2022-10-14T09:34:41.994Z,100728.31
2022-10-14T09:37:27.081Z,100730.13
2022-10-14T09:40:00.961Z,100729.53
2022-10-14T09:42:45.464Z,100726.09
2022-10-14T09:45:17.131Z,100724.00
2022-10-14T09:47:52.487Z,100715.84
2022-10-14T09:50:28.022Z,100674.88
2022-10-14T09:53:03.402Z,100625.22
2022-10-14T09:55:33.123Z,100716.31
2022-10-14T09:58:08.788Z,100668.25
2022-10-14T10:00:38.802Z,100611.41
2022-10-14T10:03:09.906Z,100714.38
2022-10-14T10:05:41.628Z,100708.56
2022-10-14T10:08:18.904Z,100707.00
2022-10-14T10:11:05.470Z,100710.28
2022-10-14T10:13:45.479Z,100698.22
2022-10-14T10:16:24.447Z,100682.97
2022-10-14T10:18:56.048Z,100666.41
2022-10-14T10:21:29.805Z,100683.84
2022-10-14T10:24:00.828Z,100658.00
2022-10-14T10:26:33.712Z,100680.50
2022-10-14T10:29:05.139Z,100680.47
2022-10-14T10:32:07.626Z,100609.06
2022-10-14T10:35:12.410Z,100638.56
2022-10-14T10:38:00.539Z,100672.56
2022-10-14T10:40:36.791Z,100667.09
2022-10-14T10:43:36.343Z,100630.50
2022-10-14T10:46:31.320Z,100592.94
2022-10-14T10:49:12.770Z,100665.19
2022-10-14T10:51:54.717Z,100515.41
2022-10-14T10:54:41.641Z,100670.34
2022-10-14T10:57:32.534Z,100665.00
2022-10-14T11:00:06.228Z,100404.94
2022-10-14T11:03:01.680Z,100642.22
2022-10-14T11:05:52.572Z,100660.22
2022-10-14T11:09:04.461Z,100662.59
2022-10-14T11:12:12.979Z,100650.84
2022-10-14T11:15:12.807Z,100634.50
2022-10-14T11:17:53.145Z,100635.69
2022-10-14T11:20:39.343Z,100487.56
2022-10-14T11:23:44.590Z,100644.38
2022-10-14T11:26:31.051Z,100602.88
2022-10-14T11:29:18.714Z,100641.31
2022-10-14T11:32:04.132Z,100626.78
2022-10-14T11:34:44.487Z,100602.78
2022-10-14T11:37:30.756Z,100620.69
2022-10-14T11:40:08.030Z,100635.97
2022-10-14T11:42:59.112Z,100637.63
2022-10-14T11:45:46.544Z,100629.91
2022-10-14T11:48:30.004Z,100628.94
2022-10-14T11:51:10.630Z,100565.13
2022-10-14T11:54:02.086Z,100623.63
2022-10-14T11:56:42.209Z,100602.34
2022-10-14T11:59:37.791Z,100629.13
2022-10-14T12:02:26.753Z,100626.50
2022-10-14T12:05:03.638Z,100627.78
2022-10-14T12:07:40.533Z,100625.97
2022-10-14T12:10:23.399Z,100622.91
2022-10-14T12:12:54.034Z,100613.63
2022-10-14T12:15:28.040Z,100556.38
2022-10-14T12:18:01.888Z,100618.44
2022-10-14T12:20:40.608Z,100584.50
2022-10-14T12:23:15.149Z,100610.41
2022-10-14T12:25:56.234Z,100572.31
2022-10-14T12:28:25.069Z,100611.88
2022-10-14T12:31:13.763Z,100609.84
2022-10-14T12:34:28.981Z,100611.88
2022-10-14T12:36:57.646Z,100608.34
2022-10-14T12:39:42.951Z,100549.69
2022-10-14T12:42:14.876Z,100612.66
2022-10-14T12:44:51.864Z,100597.81
2022-10-14T12:47:24.694Z,100599.78
2022-10-14T12:49:58.363Z,100592.59
2022-10-14T12:52:32.983Z,100412.09
2022-10-14T12:55:04.950Z,100592.72
2022-10-14T12:57:38.851Z,100597.34
2022-10-14T13:00:33.108Z,100600.78
2022-10-14T13:03:05.139Z,100458.69
2022-10-14T13:05:38.212Z,100595.75
2022-10-14T13:08:26.783Z,100595.88
2022-10-14T13:11:11.618Z,100591.84
2022-10-14T13:14:01.946Z,100584.13
2022-10-14T13:17:00.090Z,100524.59
2022-10-14T13:19:46.081Z,100587.75
2022-10-14T13:22:40.263Z,100585.22
2022-10-14T13:25:20.149Z,100587.53
2022-10-14T13:28:22.799Z,100542.06
2022-10-14T13:31:04.708Z,100579.69
2022-10-14T13:33:43.874Z,100567.13
2022-10-14T13:36:19.893Z,100578.13
2022-10-14T13:38:59.158Z,100584.00
2022-10-14T13:41:31.508Z,100571.69
2022-10-14T13:44:03.390Z,100484.50
2022-10-14T13:46:40.303Z,100562.84
2022-10-14T13:51:53.931Z,100538.81
2022-10-14T13:54:26.047Z,100552.19
2022-10-14T13:57:34.629Z,100546.00
2022-10-14T14:02:49.014Z,100540.84
2022-10-14T14:05:24.331Z,100541.03
2022-10-14T14:11:14.910Z,100541.56
2022-10-14T14:13:59.886Z,100540.25
2022-10-14T14:16:33.725Z,100536.88
2022-10-14T14:19:08.781Z,100538.47
2022-10-14T14:21:37.792Z,100532.09
2022-10-14T14:24:19.125Z,100529.78
2022-10-14T14:26:56.192Z,100520.56
2022-10-14T14:29:30.390Z,100525.28
2022-10-14T14:32:08.801Z,100444.19
2022-10-14T14:34:40.073Z,100510.44
2022-10-14T14:40:20.782Z,100505.22
2022-10-14T14:42:54.234Z,100418.59
2022-10-14T14:45:26.644Z,100384.31
2022-10-14T14:47:59.852Z,100385.13
2022-10-14T14:50:33.933Z,100435.16
2022-10-14T14:53:08.345Z,100485.56
2022-10-14T14:55:43.258Z,100501.34
2022-10-14T14:58:30.949Z,100511.50
2022-10-14T15:01:00.156Z,100506.25
2022-10-14T15:03:32.655Z,100506.50
2022-10-14T15:06:05.039Z,100469.28
2022-10-14T15:08:38.043Z,100495.13
2022-10-14T15:11:07.439Z,100490.78
2022-10-14T15:13:53.109Z,100442.38
2022-10-14T15:16:41.680Z,100489.97
2022-10-14T15:19:32.940Z,100484.44
2022-10-14T15:22:29.578Z,100484.97
2022-10-14T15:25:12.001Z,100481.84
2022-10-14T15:27:49.842Z,100483.22
2022-10-14T15:30:34.904Z,100480.31
2022-10-14T15:33:16.018Z,100455.19
2022-10-14T15:35:46.024Z,100443.03
2022-10-14T15:38:17.532Z,100457.81
2022-10-14T15:40:47.082Z,100476.66
2022-10-14T15:43:18.347Z,100473.03
2022-10-14T15:46:12.672Z,100446.94
2022-10-14T15:48:46.299Z,100448.53
2022-10-14T15:51:18.125Z,100427.38
2022-10-14T15:53:47.082Z,100459.13
2022-10-14T15:56:15.759Z,100460.59
2022-10-14T15:58:44.444Z,100465.59
2022-10-14T16:01:20.519Z,100425.19
2022-10-14T16:03:49.630Z,100466.38
2022-10-14T16:06:19.321Z,100459.69
2022-10-14T16:08:48.098Z,100459.28
2022-10-14T16:11:23.488Z,100423.16
2022-10-14T16:13:52.257Z,100456.66
2022-10-14T16:16:30.071Z,100356.06
2022-10-14T16:19:02.375Z,100456.59
2022-10-14T16:21:31.021Z,100459.13
2022-10-14T16:23:59.780Z,100462.28
2022-10-14T16:26:29.415Z,100457.44
2022-10-14T16:28:58.979Z,100457.97
2022-10-14T16:31:29.050Z,100457.81
2022-10-14T16:33:57.642Z,100469.13
2022-10-14T16:36:27.422Z,100466.38
2022-10-14T16:38:58.268Z,100462.72
2022-10-14T16:41:29.507Z,100465.38
2022-10-14T16:43:57.963Z,100420.22
2022-10-14T16:46:41.787Z,100464.47
2022-10-14T16:49:10.984Z,100456.00
2022-10-14T16:51:39.681Z,100464.56
2022-10-14T16:54:08.433Z,100467.19
2022-10-14T16:56:55.540Z,100462.69
2022-10-14T16:59:25.581Z,100461.59
2022-10-14T17:01:55.955Z,100463.28
2022-10-14T17:04:24.814Z,100378.16
2022-10-14T17:07:01.983Z,100455.97
2022-10-14T17:09:30.648Z,100465.66
2022-10-14T17:12:02.738Z,100461.16
2022-10-14T17:14:32.334Z,100457.47
2022-10-14T17:17:02.503Z,100459.22
2022-10-14T17:19:31.229Z,100453.91
2022-10-14T17:22:02.021Z,100453.91
2022-10-14T17:24:31.024Z,100455.63
2022-10-14T17:27:02.592Z,100454.75
2022-10-14T17:29:31.540Z,100459.16
2022-10-14T17:32:01.816Z,100454.72
2022-10-14T17:34:32.066Z,100266.28
2022-10-14T17:39:42.316Z,100437.69
2022-10-14T17:42:10.718Z,100432.31
2022-10-14T17:44:43.473Z,100435.00
2022-10-14T17:47:13.931Z,100435.66
2022-10-14T17:49:43.155Z,100427.22
2022-10-14T17:52:11.884Z,100432.13
2022-10-14T17:54:40.581Z,100432.53
2022-10-14T17:57:09.189Z,100432.13
2022-10-14T17:59:37.818Z,100435.19
2022-10-14T18:02:09.686Z,100424.00
2022-10-14T18:04:39.742Z,100433.09
2022-10-14T18:07:08.337Z,100430.53
2022-10-14T18:09:37.328Z,100433.38
2022-10-14T18:12:09.480Z,100439.78
2022-10-14T18:14:39.093Z,100426.69
2022-10-14T18:17:08.154Z,100383.63
2022-10-14T18:19:38.665Z,100429.75
2022-10-14T18:22:07.363Z,100427.25
2022-10-14T18:24:39.307Z,100429.13
2022-10-14T18:27:08.150Z,100431.00
2022-10-14T18:29:37.880Z,100425.88
2022-10-14T18:32:06.937Z,100431.41
2022-10-14T18:34:35.631Z,100426.31
2022-10-14T18:37:05.697Z,100430.94
2022-10-14T18:39:34.878Z,100425.75
2022-10-14T18:42:03.588Z,100422.38
2022-10-14T18:44:32.183Z,100344.16
2022-10-14T18:47:00.446Z,100412.78
2022-10-14T18:49:28.794Z,100359.75
2022-10-14T18:51:57.083Z,100378.78
2022-10-14T18:54:27.165Z,100398.59
2022-10-14T18:56:55.846Z,100391.41
2022-10-14T18:59:25.881Z,100375.44
2022-10-14T19:01:55.380Z,100396.22
2022-10-14T19:04:28.307Z,100369.84
2022-10-14T19:06:56.693Z,100351.50
2022-10-14T19:09:29.699Z,100372.09
2022-10-14T19:11:59.598Z,100369.50
2022-10-14T19:14:31.696Z,100368.66
2022-10-14T19:17:00.358Z,100370.50
2022-10-14T19:19:29.024Z,100369.06
2022-10-14T19:22:07.096Z,100376.41
2022-10-14T19:24:39.721Z,100380.31
2022-10-14T19:27:08.397Z,100378.84
2022-10-14T19:29:36.729Z,100381.69
2022-10-14T19:32:05.200Z,100381.84
2022-10-14T19:34:33.785Z,100378.53
2022-10-14T19:37:02.481Z,100376.00
2022-10-14T19:39:31.102Z,100380.47
2022-10-14T19:42:01.127Z,100376.81
2022-10-14T19:44:29.427Z,100375.75
2022-10-14T19:46:58.046Z,100377.31
2022-10-14T19:49:26.354Z,100365.59
2022-10-14T19:51:54.887Z,100353.06
2022-10-14T19:54:23.553Z,100346.69
2022-10-14T19:56:52.206Z,100340.41
2022-10-14T19:59:22.171Z,100338.78
2022-10-14T20:01:50.893Z,100279.72
2022-10-14T20:04:22.739Z,100327.50
2022-10-14T20:06:53.818Z,100328.63
2022-10-14T20:09:22.475Z,100320.88
2022-10-14T20:11:51.077Z,100320.03
2022-10-14T20:14:20.980Z,100320.09
2022-10-14T20:16:53.546Z,100158.56
2022-10-14T20:19:24.752Z,100315.84
2022-10-14T20:21:53.404Z,100315.03
2022-10-14T20:24:22.061Z,100315.09
2022-10-14T20:26:50.641Z,100312.41
2022-10-14T20:29:19.418Z,100302.56
2022-10-14T20:31:49.446Z,100299.69
2022-10-14T20:34:18.366Z,100309.16
2022-10-14T20:36:48.960Z,100312.47
2022-10-14T20:39:17.673Z,100307.00
2022-10-14T20:41:46.431Z,100305.13
2022-10-14T20:44:19.197Z,100317.47
2022-10-14T20:46:53.076Z,100315.69
2022-10-14T20:49:21.491Z,100286.16
2022-10-14T20:51:50.120Z,100305.22
2022-10-14T20:54:18.942Z,100308.78
2022-10-14T20:56:47.695Z,100306.25
2022-10-14T20:59:16.305Z,100305.56
2022-10-14T21:01:44.954Z,100303.03
2022-10-14T21:04:14.956Z,100290.75
2022-10-14T21:06:43.617Z,100291.59
2022-10-14T21:09:12.421Z,100281.00
2022-10-14T21:11:41.670Z,100238.47
2022-10-14T21:14:10.267Z,100275.69
2022-10-14T21:16:39.878Z,100270.41
2022-10-14T21:19:09.939Z,100271.41
2022-10-14T21:21:45.307Z,100254.16
2022-10-14T21:24:16.796Z,100268.97
2022-10-14T21:26:46.362Z,100264.66
2022-10-14T21:29:14.642Z,100264.69
2022-10-14T21:31:43.123Z,100260.31
2022-10-14T21:34:13.124Z,100264.66
2022-10-14T21:36:43.575Z,100254.84
2022-10-14T21:39:16.019Z,100239.88
2022-10-14T21:41:45.025Z,100195.09
2022-10-14T21:44:17.537Z,100237.81
2022-10-14T21:46:46.747Z,100238.41
2022-10-14T21:49:16.050Z,100244.34
2022-10-14T21:51:50.407Z,100244.19
2022-10-14T21:54:19.027Z,100240.47
2022-10-14T21:56:47.381Z,100210.09
2022-10-14T21:59:16.228Z,100234.00
2022-10-14T22:01:44.949Z,100231.22
2022-10-14T22:04:13.671Z,100226.63
2022-10-14T22:06:42.287Z,100227.47
2022-10-14T22:09:12.415Z,100218.50
2022-10-14T22:11:42.645Z,100183.75
2022-10-14T22:14:13.653Z,100215.56
2022-10-14T22:16:42.903Z,100184.97
2022-10-14T22:19:13.097Z,99928.53
2022-10-14T22:21:45.007Z,100207.44
2022-10-14T22:24:15.201Z,100200.56
2022-10-14T22:26:44.134Z,100198.97
2022-10-14T22:29:16.152Z,100160.19
2022-10-14T22:31:45.678Z,100196.81
2022-10-14T22:34:17.852Z,100201.41
2022-10-14T22:36:46.955Z,100199.75
2022-10-14T22:39:18.544Z,100116.81
2022-10-14T22:41:46.981Z,100049.91
2022-10-14T22:44:15.676Z,100198.06
2022-10-14T22:46:44.348Z,100193.72
2022-10-14T22:49:13.019Z,100182.06
2022-10-14T22:51:41.967Z,100183.63
2022-10-14T22:54:11.239Z,100179.78
2022-10-14T22:56:41.839Z,100176.72
2022-10-14T22:59:12.805Z,100179.88
2022-10-14T23:01:43.180Z,100172.38
2022-10-14T23:04:13.960Z,100180.94
2022-10-14T23:06:46.769Z,100176.25
2022-10-14T23:09:15.527Z,100172.44
2022-10-14T23:11:45.503Z,100175.78
2022-10-14T23:14:14.231Z,100177.41
2022-10-14T23:16:42.979Z,100172.81
2022-10-14T23:19:11.809Z,100176.28
2022-10-14T23:21:40.924Z,100165.59
2022-10-14T23:24:12.224Z,100168.94
2022-10-14T23:26:41.248Z,100155.50
2022-10-14T23:29:12.547Z,100156.38
2022-10-14T23:31:42.512Z,100166.13
2022-10-14T23:34:15.002Z,100160.88
2022-10-14T23:36:44.163Z,100167.06
2022-10-14T23:39:13.280Z,100164.41
2022-10-14T23:41:41.942Z,100156.28
2022-10-14T23:44:13.275Z,100148.97
2022-10-14T23:46:41.993Z,100137.34
2022-10-14T23:49:26.438Z,100138.03
2022-10-14T23:51:55.775Z,100120.16
2022-10-14T23:54:24.484Z,100121.84
2022-10-14T23:56:53.256Z,100107.56
2022-10-14T23:59:23.338Z,100111.81
